createdAt,value
2017-08-22T00:00:33.831Z,20.8
2017-08-22T00:01:35.472Z,20.7
2017-08-22T00:02:37.110Z,20.8
2017-08-22T00:03:38.747Z,20.8
2017-08-22T00:04:40.397Z,20.8
2017-08-22T00:05:42.032Z,20.7
2017-08-22T00:06:43.667Z,20.8
2017-08-22T00:07:45.300Z,20.7
2017-08-22T00:08:46.939Z,20.7
2017-08-22T00:09:48.577Z,20.8
2017-08-22T00:10:50.218Z,20.7
2017-08-22T00:11:51.860Z,20.8
2017-08-22T00:12:53.494Z,20.8
2017-08-22T00:13:55.133Z,20.7
2017-08-22T00:14:56.766Z,20.7
2017-08-22T00:15:58.400Z,20.8
2017-08-22T00:17:00.043Z,20.8
2017-08-22T00:18:01.676Z,20.8
2017-08-22T00:19:03.315Z,20.7
2017-08-22T00:20:04.947Z,20.7
2017-08-22T00:21:06.585Z,20.8
2017-08-22T00:22:08.223Z,20.7
2017-08-22T00:23:09.860Z,20.8
2017-08-22T00:24:11.499Z,20.8
2017-08-22T00:25:13.140Z,20.7
2017-08-22T00:26:14.780Z,20.8
2017-08-22T00:27:16.416Z,20.7
2017-08-22T00:28:18.050Z,20.7
2017-08-22T00:29:19.686Z,20.7
2017-08-22T00:30:21.322Z,20.7
2017-08-22T00:31:22.960Z,20.7
2017-08-22T00:32:24.600Z,20.8
2017-08-22T00:33:26.237Z,20.8
2017-08-22T00:34:27.872Z,20.7
2017-08-22T00:35:29.508Z,20.8
2017-08-22T00:36:31.145Z,20.8
2017-08-22T00:37:32.784Z,20.8
2017-08-22T00:38:34.420Z,20.7
2017-08-22T00:39:36.059Z,20.8
2017-08-22T00:40:37.699Z,20.7
2017-08-22T00:41:39.334Z,20.8
2017-08-22T00:42:40.971Z,20.7
2017-08-22T00:43:42.605Z,20.8
2017-08-22T00:44:44.243Z,20.7
2017-08-22T00:45:45.878Z,20.8
2017-08-22T00:46:47.519Z,20.8
2017-08-22T00:47:49.155Z,20.8
2017-08-22T00:48:50.789Z,20.8
2017-08-22T00:49:52.422Z,20.8
2017-08-22T00:50:54.064Z,20.8
2017-08-22T00:51:55.698Z,20.7
2017-08-22T00:52:57.335Z,20.8
2017-08-22T00:53:58.976Z,20.8
2017-08-22T00:55:00.611Z,20.7
2017-08-22T00:56:02.267Z,20.8
2017-08-22T00:57:03.905Z,20.8
2017-08-22T00:58:05.543Z,20.8
2017-08-22T00:59:07.181Z,20.8
2017-08-22T01:00:08.819Z,20.7
2017-08-22T01:01:10.456Z,20.7
2017-08-22T01:02:12.098Z,20.8
2017-08-22T01:03:13.727Z,20.7
2017-08-22T01:04:15.369Z,20.7
2017-08-22T01:05:17.002Z,20.7
2017-08-22T01:06:18.641Z,20.8
2017-08-22T01:07:20.282Z,20.7
2017-08-22T01:08:21.916Z,20.7
2017-08-22T01:09:23.576Z,20.7
2017-08-22T01:10:25.191Z,20.6
2017-08-22T01:11:26.829Z,20.7
2017-08-22T01:12:28.463Z,20.6
2017-08-22T01:13:30.106Z,20.7
2017-08-22T01:14:31.741Z,20.7
2017-08-22T01:15:33.379Z,20.7
2017-08-22T01:16:35.019Z,20.7
2017-08-22T01:17:36.654Z,20.7
2017-08-22T01:18:38.291Z,20.7
2017-08-22T01:19:39.925Z,20.7
2017-08-22T01:20:41.562Z,20.6
2017-08-22T01:21:43.202Z,20.6
2017-08-22T01:22:44.845Z,20.7
2017-08-22T01:23:46.482Z,20.7
2017-08-22T01:24:48.117Z,20.7
2017-08-22T01:25:49.756Z,20.7
2017-08-22T01:26:51.390Z,20.7
2017-08-22T01:27:53.026Z,20.7
2017-08-22T01:28:54.662Z,20.6
2017-08-22T01:29:56.303Z,20.7
2017-08-22T01:30:57.939Z,20.6
2017-08-22T01:31:59.575Z,20.6
2017-08-22T01:33:01.220Z,20.6
2017-08-22T01:34:02.847Z,20.7
2017-08-22T01:35:04.491Z,20.6
2017-08-22T01:36:06.127Z,20.7
2017-08-22T01:37:07.765Z,20.7
2017-08-22T01:38:09.404Z,20.7
2017-08-22T01:39:11.042Z,20.6
2017-08-22T01:40:12.676Z,20.7
2017-08-22T01:41:14.310Z,20.6
2017-08-22T01:42:15.950Z,20.6
2017-08-22T01:43:17.587Z,20.6
2017-08-22T01:44:19.226Z,20.7
2017-08-22T01:45:20.862Z,20.7
2017-08-22T01:46:22.536Z,20.7
2017-08-22T01:47:24.134Z,20.6
2017-08-22T01:48:25.774Z,20.7
2017-08-22T01:49:27.410Z,20.7
2017-08-22T01:50:29.049Z,20.6
2017-08-22T01:51:30.687Z,20.6
2017-08-22T01:52:32.324Z,20.6
2017-08-22T01:53:33.971Z,20.7
2017-08-22T01:54:35.602Z,20.6
2017-08-22T01:55:37.243Z,20.6
2017-08-22T01:56:38.878Z,20.6
2017-08-22T01:57:40.518Z,20.7
2017-08-22T01:58:42.157Z,20.7
2017-08-22T01:59:43.799Z,20.7
2017-08-22T02:00:45.431Z,20.6
2017-08-22T02:01:47.068Z,20.7
2017-08-22T02:02:48.703Z,20.7
2017-08-22T02:03:50.340Z,20.7
2017-08-22T02:04:51.978Z,20.6
2017-08-22T02:05:53.617Z,20.6
2017-08-22T02:06:55.257Z,20.7
2017-08-22T02:07:56.887Z,20.7
2017-08-22T02:08:58.523Z,20.7
2017-08-22T02:10:00.165Z,20.7
2017-08-22T02:11:01.805Z,20.7
2017-08-22T02:12:03.443Z,20.7
2017-08-22T02:13:05.082Z,20.6
2017-08-22T02:14:06.721Z,20.7
2017-08-22T02:15:08.356Z,20.6
2017-08-22T02:16:09.987Z,20.6
2017-08-22T02:17:11.622Z,20.7
2017-08-22T02:18:13.259Z,20.6
2017-08-22T02:19:14.899Z,20.6
2017-08-22T02:20:16.536Z,20.6
2017-08-22T02:21:18.178Z,20.6
2017-08-22T02:22:19.813Z,20.7
2017-08-22T02:23:21.448Z,20.7
2017-08-22T02:24:23.085Z,20.6
2017-08-22T02:25:24.719Z,20.7
2017-08-22T02:26:26.357Z,20.7
2017-08-22T02:27:27.998Z,20.7
2017-08-22T02:28:29.638Z,20.7
2017-08-22T02:29:31.268Z,20.6
2017-08-22T02:30:32.907Z,20.7
2017-08-22T02:31:34.540Z,20.7
2017-08-22T02:32:36.178Z,20.7
2017-08-22T02:33:37.833Z,20.7
2017-08-22T02:34:39.459Z,20.6
2017-08-22T02:35:41.100Z,20.7
2017-08-22T02:36:42.735Z,20.6
2017-08-22T02:37:44.377Z,20.6
2017-08-22T02:38:46.010Z,20.6
2017-08-22T02:39:47.647Z,20.6
2017-08-22T02:40:49.288Z,20.7
2017-08-22T02:41:50.929Z,20.6
2017-08-22T02:42:52.568Z,20.7
2017-08-22T02:43:54.205Z,20.7
2017-08-22T02:44:55.841Z,20.7
2017-08-22T02:45:57.473Z,20.7
2017-08-22T02:46:59.108Z,20.7
2017-08-22T02:48:00.745Z,20.7
2017-08-22T02:49:02.385Z,20.6
2017-08-22T02:50:04.021Z,20.5
2017-08-22T02:51:05.656Z,20.6
2017-08-22T02:52:07.295Z,20.5
2017-08-22T02:53:08.929Z,20.5
2017-08-22T02:54:10.568Z,20.6
2017-08-22T02:55:12.208Z,20.6
2017-08-22T02:56:13.844Z,20.6
2017-08-22T02:57:15.484Z,20.5
2017-08-22T02:58:17.119Z,20.6
2017-08-22T02:59:18.755Z,20.6
2017-08-22T03:00:20.417Z,20.6
2017-08-22T03:01:22.027Z,20.5
2017-08-22T03:02:23.664Z,20.5
2017-08-22T03:03:25.302Z,20.6
2017-08-22T03:04:26.944Z,20.6
2017-08-22T03:05:28.582Z,20.5
2017-08-22T03:06:30.216Z,20.5
2017-08-22T03:07:31.853Z,20.5
2017-08-22T03:08:33.489Z,20.5
2017-08-22T03:09:35.128Z,20.5
2017-08-22T03:10:36.766Z,20.5
2017-08-22T03:11:38.403Z,20.6
2017-08-22T03:12:40.039Z,20.6
2017-08-22T03:13:41.672Z,20.6
2017-08-22T03:14:43.307Z,20.6
2017-08-22T03:15:44.946Z,20.5
2017-08-22T03:16:46.580Z,20.5
2017-08-22T03:17:48.223Z,20.6
2017-08-22T03:18:49.862Z,20.5
2017-08-22T03:19:51.497Z,20.5
2017-08-22T03:20:53.135Z,20.5
2017-08-22T03:21:54.770Z,20.6
2017-08-22T03:22:56.406Z,20.5
2017-08-22T03:23:58.050Z,20.6
2017-08-22T03:24:59.685Z,20.5
2017-08-22T03:26:01.320Z,20.6
2017-08-22T03:27:02.957Z,20.6
2017-08-22T03:28:04.593Z,20.6
2017-08-22T03:29:06.234Z,20.6
2017-08-22T03:30:07.869Z,20.6
2017-08-22T03:31:09.507Z,20.6
2017-08-22T03:32:11.141Z,20.6
2017-08-22T03:33:12.783Z,20.5
2017-08-22T03:34:14.419Z,20.6
2017-08-22T03:35:16.054Z,20.5
2017-08-22T03:36:17.689Z,20.6
2017-08-22T03:37:19.324Z,20.7
2017-08-22T03:38:20.964Z,20.6
2017-08-22T03:39:22.602Z,20.6
2017-08-22T03:40:24.238Z,20.6
2017-08-22T03:41:25.878Z,20.6
2017-08-22T03:42:27.510Z,20.5
2017-08-22T03:43:29.145Z,20.5
2017-08-22T03:44:30.784Z,20.6
2017-08-22T03:45:32.421Z,20.6
2017-08-22T03:46:34.055Z,20.6
2017-08-22T03:47:35.696Z,20.6
2017-08-22T03:48:37.328Z,20.6
2017-08-22T03:49:38.968Z,20.6
2017-08-22T03:50:40.603Z,20.6
2017-08-22T03:51:42.239Z,20.6
2017-08-22T03:52:43.873Z,20.6
2017-08-22T03:53:45.514Z,20.6
2017-08-22T03:54:47.152Z,20.5
2017-08-22T03:55:48.788Z,20.6
2017-08-22T03:56:50.423Z,20.5
2017-08-22T03:57:52.055Z,20.5
2017-08-22T03:58:53.696Z,20.5
2017-08-22T03:59:55.337Z,20.5
2017-08-22T04:00:56.974Z,20.6
2017-08-22T04:01:58.611Z,20.6
2017-08-22T04:03:00.247Z,20.5
2017-08-22T04:04:01.896Z,20.6
2017-08-22T04:05:03.530Z,20.5
2017-08-22T04:06:05.159Z,20.7
2017-08-22T04:07:06.797Z,20.5
2017-08-22T04:08:08.436Z,20.6
2017-08-22T04:09:10.071Z,20.6
2017-08-22T04:10:11.707Z,20.5
2017-08-22T04:11:13.345Z,20.6
2017-08-22T04:12:14.986Z,20.5
2017-08-22T04:13:16.621Z,20.6
2017-08-22T04:14:18.262Z,20.6
2017-08-22T04:15:19.901Z,20.6
2017-08-22T04:16:21.541Z,20.5
2017-08-22T04:17:23.177Z,20.6
2017-08-22T04:18:24.818Z,20.7
2017-08-22T04:19:26.449Z,20.5
2017-08-22T04:20:28.087Z,20.5
2017-08-22T04:21:29.723Z,20.6
2017-08-22T04:22:31.360Z,20.5
2017-08-22T04:23:33.000Z,20.5
2017-08-22T04:24:34.631Z,20.6
2017-08-22T04:25:36.267Z,20.6
2017-08-22T04:26:37.907Z,20.6
2017-08-22T04:27:39.540Z,20.5
2017-08-22T04:28:41.176Z,20.5
2017-08-22T04:29:42.812Z,20.5
2017-08-22T04:30:44.451Z,20.5
2017-08-22T04:31:46.086Z,20.5
2017-08-22T04:32:47.723Z,20.5
2017-08-22T04:33:49.360Z,20.5
2017-08-22T04:34:50.995Z,20.4
2017-08-22T04:35:52.640Z,20.5
2017-08-22T04:36:54.277Z,20.5
2017-08-22T04:37:55.919Z,20.5
2017-08-22T04:38:57.556Z,20.5
2017-08-22T04:39:59.191Z,20.5
2017-08-22T04:41:00.829Z,20.5
2017-08-22T04:42:02.465Z,20.6
2017-08-22T04:43:04.106Z,20.5
2017-08-22T04:44:05.740Z,20.5
2017-08-22T04:45:07.381Z,20.5
2017-08-22T04:46:09.013Z,20.5
2017-08-22T04:47:10.652Z,20.5
2017-08-22T04:48:12.291Z,20.5
2017-08-22T04:49:13.927Z,20.5
2017-08-22T04:50:15.564Z,20.5
2017-08-22T04:51:17.199Z,20.5
2017-08-22T04:52:18.843Z,20.5
2017-08-22T04:53:20.482Z,20.5
2017-08-22T04:54:22.113Z,20.5
2017-08-22T04:55:23.749Z,20.5
2017-08-22T04:56:25.384Z,20.5
2017-08-22T04:57:27.022Z,20.5
2017-08-22T04:58:28.664Z,20.6
2017-08-22T04:59:30.299Z,20.6
2017-08-22T05:00:31.937Z,20.6
2017-08-22T05:01:33.573Z,20.5
2017-08-22T05:02:35.212Z,20.5
2017-08-22T05:03:36.850Z,20.6
2017-08-22T05:04:38.489Z,20.5
2017-08-22T05:05:40.126Z,20.5
2017-08-22T05:06:41.762Z,20.6
2017-08-22T05:07:43.396Z,20.6
2017-08-22T05:08:45.035Z,20.5
2017-08-22T05:09:46.670Z,20.5
2017-08-22T05:10:48.306Z,20.6
2017-08-22T05:11:49.946Z,20.6
2017-08-22T05:12:51.581Z,20.6
2017-08-22T05:13:53.223Z,20.5
2017-08-22T05:14:54.858Z,20.5
2017-08-22T05:15:56.493Z,20.6
2017-08-22T05:16:58.132Z,20.5
2017-08-22T05:17:59.767Z,20.5
2017-08-22T05:19:01.407Z,20.6
2017-08-22T05:20:03.039Z,20.5
2017-08-22T05:21:04.681Z,20.6
2017-08-22T05:22:06.316Z,20.5
2017-08-22T05:23:07.953Z,20.6
2017-08-22T05:24:09.588Z,20.5
2017-08-22T05:25:11.222Z,20.6
2017-08-22T05:26:12.863Z,20.5
2017-08-22T05:27:14.502Z,20.6
2017-08-22T05:28:16.143Z,20.6
2017-08-22T05:29:17.774Z,20.5
2017-08-22T05:30:19.412Z,20.5
2017-08-22T05:31:21.049Z,20.5
2017-08-22T05:32:22.686Z,20.5
2017-08-22T05:33:24.324Z,20.6
2017-08-22T05:34:25.967Z,20.5
2017-08-22T05:35:27.606Z,20.5
2017-08-22T05:36:29.241Z,20.5
2017-08-22T05:37:30.875Z,20.5
2017-08-22T05:38:32.522Z,20.5
2017-08-22T05:39:34.160Z,20.5
2017-08-22T05:40:35.806Z,20.5
2017-08-22T05:41:37.434Z,20.5
2017-08-22T05:42:39.073Z,20.5
2017-08-22T05:43:40.712Z,20.5
2017-08-22T05:44:42.346Z,20.6
2017-08-22T05:45:43.982Z,20.5
2017-08-22T05:46:45.627Z,20.5
2017-08-22T05:47:47.267Z,20.6
2017-08-22T05:48:48.909Z,20.5
2017-08-22T05:49:50.547Z,20.6
2017-08-22T05:50:52.185Z,20.5
2017-08-22T05:51:53.823Z,20.5
2017-08-22T05:52:55.463Z,20.5
2017-08-22T05:53:57.095Z,20.5
2017-08-22T05:54:58.735Z,20.5
2017-08-22T05:56:00.371Z,20.5
2017-08-22T05:57:02.013Z,20.5
2017-08-22T05:58:03.648Z,20.5
2017-08-22T05:59:05.288Z,20.5
2017-08-22T06:00:06.924Z,20.5
2017-08-22T06:01:08.563Z,20.5
2017-08-22T06:02:10.202Z,20.5
2017-08-22T06:03:11.846Z,20.5
2017-08-22T06:04:13.485Z,20.5
2017-08-22T06:05:15.120Z,20.5
2017-08-22T06:06:16.756Z,20.5
2017-08-22T06:07:18.394Z,20.5
2017-08-22T06:08:20.033Z,20.5
2017-08-22T06:09:21.676Z,20.4
2017-08-22T06:10:23.321Z,20.5
2017-08-22T06:11:24.958Z,20.5
2017-08-22T06:12:26.592Z,20.5
2017-08-22T06:13:28.229Z,20.5
2017-08-22T06:14:29.868Z,20.5
2017-08-22T06:15:31.508Z,20.5
2017-08-22T06:16:33.146Z,20.4
2017-08-22T06:17:34.784Z,20.4
2017-08-22T06:18:36.425Z,20.5
2017-08-22T06:19:38.062Z,20.4
2017-08-22T06:20:39.695Z,20.4
2017-08-22T06:21:41.336Z,20.5
2017-08-22T06:22:42.975Z,20.4
2017-08-22T06:23:44.613Z,20.5
2017-08-22T06:24:46.257Z,20.5
2017-08-22T06:25:47.894Z,20.4
2017-08-22T06:26:49.539Z,20.5
2017-08-22T06:27:51.172Z,20.4
2017-08-22T06:28:52.812Z,20.4
2017-08-22T06:29:54.452Z,20.4
2017-08-22T06:30:56.090Z,20.5
2017-08-22T06:31:57.729Z,20.4
2017-08-22T06:32:59.370Z,20.5
2017-08-22T06:34:01.005Z,20.5
2017-08-22T06:35:02.647Z,20.5
2017-08-22T06:36:04.287Z,20.5
2017-08-22T06:37:05.926Z,20.5
2017-08-22T06:38:07.567Z,20.5
2017-08-22T06:39:09.210Z,20.5
2017-08-22T06:40:10.850Z,20.5
2017-08-22T06:41:12.492Z,20.4
2017-08-22T06:42:14.131Z,20.5
2017-08-22T06:43:15.777Z,20.5
2017-08-22T06:44:17.411Z,20.5
2017-08-22T06:45:19.048Z,20.5
2017-08-22T06:46:20.691Z,20.5
2017-08-22T06:47:22.334Z,20.5
2017-08-22T06:48:23.970Z,20.5
2017-08-22T06:49:25.613Z,20.5
2017-08-22T06:50:27.250Z,20.5
2017-08-22T06:51:28.886Z,20.5
2017-08-22T06:52:30.529Z,20.5
2017-08-22T06:53:32.166Z,20.6
2017-08-22T06:54:33.807Z,20.5
2017-08-22T06:55:35.441Z,20.5
2017-08-22T06:56:37.080Z,20.6
2017-08-22T06:57:38.718Z,20.6
2017-08-22T06:58:40.356Z,20.5
2017-08-22T06:59:41.999Z,20.6
2017-08-22T07:00:43.642Z,20.6
2017-08-22T07:01:45.282Z,20.7
2017-08-22T07:02:46.921Z,20.6
2017-08-22T07:03:48.559Z,20.6
2017-08-22T07:04:50.200Z,20.6
2017-08-22T07:05:51.842Z,20.7
2017-08-22T07:06:53.496Z,20.7
2017-08-22T07:07:55.125Z,20.7
2017-08-22T07:08:56.766Z,20.7
2017-08-22T07:09:58.401Z,20.6
2017-08-22T07:11:00.043Z,20.7
2017-08-22T07:12:01.682Z,20.7
2017-08-22T07:13:03.321Z,20.7
2017-08-22T07:14:04.967Z,20.7
2017-08-22T07:15:06.607Z,20.7
2017-08-22T07:16:08.245Z,20.6
2017-08-22T07:17:09.885Z,20.7
2017-08-22T07:18:11.524Z,20.8
2017-08-22T07:19:13.166Z,20.8
2017-08-22T07:20:14.804Z,20.7
2017-08-22T07:21:16.443Z,20.8
2017-08-22T07:22:18.087Z,20.8
2017-08-22T07:23:19.733Z,20.7
2017-08-22T07:24:21.370Z,20.8
2017-08-22T07:25:23.041Z,20.8
2017-08-22T07:26:24.682Z,20.8
2017-08-22T07:27:26.321Z,20.8
2017-08-22T07:28:27.962Z,20.8
2017-08-22T07:29:29.601Z,20.8
2017-08-22T07:30:31.247Z,20.7
2017-08-22T07:31:32.917Z,20.7
2017-08-22T07:32:34.536Z,20.8
2017-08-22T07:33:36.170Z,20.8
2017-08-22T07:34:37.810Z,20.8
2017-08-22T07:35:39.449Z,20.7
2017-08-22T07:36:41.091Z,20.8
2017-08-22T07:37:42.734Z,20.7
2017-08-22T07:38:44.395Z,20.7
2017-08-22T07:39:46.013Z,20.7
2017-08-22T07:40:47.651Z,20.8
2017-08-22T07:41:49.292Z,20.8
2017-08-22T07:42:50.935Z,20.8
2017-08-22T07:43:52.574Z,20.8
2017-08-22T07:44:54.220Z,20.8
2017-08-22T07:45:55.851Z,20.8
2017-08-22T07:46:57.493Z,20.8
2017-08-22T07:47:59.134Z,20.8
2017-08-22T07:49:00.775Z,20.9
2017-08-22T07:50:02.413Z,20.9
2017-08-22T07:51:04.056Z,20.9
2017-08-22T07:52:05.697Z,20.9
2017-08-22T07:53:07.336Z,20.8
2017-08-22T07:54:08.975Z,20.8
2017-08-22T07:55:10.617Z,20.8
2017-08-22T07:56:12.259Z,20.8
2017-08-22T07:57:13.903Z,20.8
2017-08-22T07:58:15.538Z,20.8
2017-08-22T07:59:17.179Z,20.8
2017-08-22T08:00:18.817Z,20.9
2017-08-22T08:01:20.456Z,20.9
2017-08-22T08:02:22.095Z,20.8
2017-08-22T08:03:23.738Z,20.9
2017-08-22T08:04:25.379Z,20.9
2017-08-22T08:05:27.024Z,21.0
2017-08-22T08:06:28.664Z,20.9
2017-08-22T08:07:30.303Z,20.9
2017-08-22T08:08:31.952Z,20.8
2017-08-22T08:09:33.588Z,20.9
2017-08-22T08:10:35.227Z,21.0
2017-08-22T08:11:36.870Z,21.0
2017-08-22T08:12:38.516Z,20.9
2017-08-22T08:13:40.162Z,21.0
2017-08-22T08:14:41.799Z,21.0
2017-08-22T08:15:43.440Z,21.0
2017-08-22T08:16:45.085Z,21.0
2017-08-22T08:17:46.730Z,21.0
2017-08-22T08:18:48.376Z,21.0
2017-08-22T08:19:50.038Z,21.0
2017-08-22T08:20:51.662Z,21.0
2017-08-22T08:21:53.301Z,21.0
2017-08-22T08:22:54.940Z,21.0
2017-08-22T08:23:56.577Z,21.1
2017-08-22T08:24:58.218Z,21.0
2017-08-22T08:25:59.860Z,21.0
2017-08-22T08:27:01.502Z,21.1
2017-08-22T08:28:03.143Z,21.0
2017-08-22T08:29:04.779Z,21.1
2017-08-22T08:30:06.421Z,21.1
2017-08-22T08:31:08.060Z,21.0
2017-08-22T08:32:09.716Z,21.1
2017-08-22T08:33:11.344Z,21.1
2017-08-22T08:34:12.986Z,21.1
2017-08-22T08:35:14.626Z,21.2
2017-08-22T08:36:16.271Z,21.2
2017-08-22T08:37:17.910Z,21.2
2017-08-22T08:38:19.549Z,21.2
2017-08-22T08:39:21.191Z,21.2
2017-08-22T08:40:22.833Z,21.2
2017-08-22T08:41:24.477Z,21.2
2017-08-22T08:42:26.117Z,21.2
2017-08-22T08:43:27.765Z,21.2
2017-08-22T08:44:29.406Z,21.2
2017-08-22T08:45:31.047Z,21.3
2017-08-22T08:46:32.691Z,21.2
2017-08-22T08:47:34.343Z,21.2
2017-08-22T08:48:35.975Z,21.2
2017-08-22T08:49:37.618Z,21.2
2017-08-22T08:50:39.255Z,21.2
2017-08-22T08:51:40.892Z,21.2
2017-08-22T08:52:42.531Z,21.2
2017-08-22T08:53:44.167Z,21.2
2017-08-22T08:54:45.809Z,21.2
2017-08-22T08:55:47.457Z,21.1
2017-08-22T08:56:49.106Z,21.2
2017-08-22T08:57:50.749Z,21.2
2017-08-22T08:58:52.382Z,21.1
2017-08-22T08:59:54.024Z,21.2
2017-08-22T09:00:55.659Z,21.1
2017-08-22T09:01:57.302Z,21.2
2017-08-22T09:02:58.940Z,21.1
2017-08-22T09:04:00.584Z,21.2
2017-08-22T09:05:02.222Z,21.3
2017-08-22T09:06:03.871Z,21.2
2017-08-22T09:07:05.511Z,21.2
2017-08-22T09:08:07.150Z,21.2
2017-08-22T09:09:08.792Z,21.2
2017-08-22T09:10:10.434Z,21.2
2017-08-22T09:11:12.079Z,21.2
2017-08-22T09:12:13.717Z,21.3
2017-08-22T09:13:15.354Z,21.2
2017-08-22T09:14:17.000Z,21.2
2017-08-22T09:15:18.639Z,21.3
2017-08-22T09:16:20.278Z,21.3
2017-08-22T09:17:21.920Z,21.3
2017-08-22T09:18:23.566Z,21.3
2017-08-22T09:19:25.203Z,21.3
2017-08-22T09:20:26.849Z,21.2
2017-08-22T09:21:28.489Z,21.2
2017-08-22T09:22:30.129Z,21.2
2017-08-22T09:23:31.774Z,21.2
2017-08-22T09:24:33.423Z,21.3
2017-08-22T09:25:35.059Z,21.3
2017-08-22T09:26:36.693Z,21.3
2017-08-22T09:27:38.333Z,21.3
2017-08-22T09:28:39.973Z,21.2
2017-08-22T09:29:41.611Z,21.2
2017-08-22T09:30:43.253Z,21.3
2017-08-22T09:31:44.896Z,21.3
2017-08-22T09:32:46.537Z,21.3
2017-08-22T09:33:48.180Z,21.3
2017-08-22T09:34:49.818Z,21.2
2017-08-22T09:35:51.474Z,21.3
2017-08-22T09:36:53.116Z,21.3
2017-08-22T09:37:54.761Z,21.3
2017-08-22T09:38:56.404Z,21.3
2017-08-22T09:39:58.054Z,21.3
2017-08-22T09:40:59.694Z,21.4
2017-08-22T09:42:01.333Z,21.3
2017-08-22T09:43:02.968Z,21.4
2017-08-22T09:44:04.613Z,21.4
2017-08-22T09:45:06.257Z,21.3
2017-08-22T09:46:07.897Z,21.3
2017-08-22T09:47:09.539Z,21.2
2017-08-22T09:48:11.180Z,21.3
2017-08-22T09:49:12.820Z,21.3
2017-08-22T09:50:14.455Z,21.3
2017-08-22T09:51:16.099Z,21.3
2017-08-22T09:52:17.743Z,21.3
2017-08-22T09:53:19.387Z,21.3
2017-08-22T09:54:21.037Z,21.3
2017-08-22T09:55:22.671Z,21.3
2017-08-22T09:56:24.309Z,21.3
2017-08-22T09:57:25.950Z,21.3
2017-08-22T09:58:27.594Z,21.3
2017-08-22T09:59:29.238Z,21.3
2017-08-22T10:00:30.879Z,21.4
2017-08-22T10:01:32.538Z,21.3
2017-08-22T10:02:34.173Z,21.3
2017-08-22T10:03:35.815Z,21.3
2017-08-22T10:04:37.452Z,21.3
2017-08-22T10:05:39.093Z,21.3
2017-08-22T10:06:40.737Z,21.4
2017-08-22T10:07:42.376Z,21.3
2017-08-22T10:08:44.019Z,21.3
2017-08-22T10:09:45.685Z,21.4
2017-08-22T10:10:47.297Z,21.3
2017-08-22T10:11:48.937Z,21.3
2017-08-22T10:12:50.577Z,21.4
2017-08-22T10:13:52.221Z,21.4
2017-08-22T10:14:53.859Z,21.3
2017-08-22T10:15:55.501Z,21.4
2017-08-22T10:16:57.137Z,21.4
2017-08-22T10:17:58.778Z,21.3
2017-08-22T10:19:00.420Z,21.4
2017-08-22T10:20:02.057Z,21.4
2017-08-22T10:21:03.697Z,21.3
2017-08-22T10:22:05.342Z,21.4
2017-08-22T10:23:06.984Z,21.4
2017-08-22T10:24:08.622Z,21.3
2017-08-22T10:25:10.256Z,21.4
2017-08-22T10:26:11.903Z,21.4
2017-08-22T10:27:13.534Z,21.4
2017-08-22T10:28:15.389Z,21.4
2017-08-22T10:29:16.980Z,21.5
2017-08-22T10:30:18.628Z,21.4
2017-08-22T10:31:20.264Z,21.4
2017-08-22T10:32:21.905Z,21.4
2017-08-22T10:33:23.545Z,21.4
2017-08-22T10:34:25.187Z,21.4
2017-08-22T10:35:26.822Z,21.5
2017-08-22T10:36:28.465Z,21.5
2017-08-22T10:37:30.105Z,21.5
2017-08-22T10:38:31.746Z,21.4
2017-08-22T10:39:33.386Z,21.5
2017-08-22T10:40:35.028Z,21.4
2017-08-22T10:41:36.694Z,21.4
2017-08-22T10:42:38.310Z,21.5
2017-08-22T10:43:39.950Z,21.4
2017-08-22T10:44:41.592Z,21.4
2017-08-22T10:45:43.240Z,21.4
2017-08-22T10:46:44.876Z,21.4
2017-08-22T10:47:46.519Z,21.4
2017-08-22T10:48:48.166Z,21.5
2017-08-22T10:49:49.806Z,21.5
2017-08-22T10:50:51.445Z,21.4
2017-08-22T10:51:53.087Z,21.4
2017-08-22T10:52:54.724Z,21.5
2017-08-22T10:53:56.366Z,21.5
2017-08-22T10:54:58.015Z,21.4
2017-08-22T10:55:59.644Z,21.5
2017-08-22T10:57:01.287Z,21.5
2017-08-22T10:58:02.927Z,21.4
2017-08-22T10:59:04.578Z,21.5
2017-08-22T11:00:06.217Z,21.5
2017-08-22T11:01:07.859Z,21.5
2017-08-22T11:02:09.510Z,21.5
2017-08-22T11:03:11.145Z,21.5
2017-08-22T11:04:12.787Z,21.5
2017-08-22T11:05:14.429Z,21.5
2017-08-22T11:06:16.070Z,21.5
2017-08-22T11:07:17.727Z,21.5
2017-08-22T11:08:19.366Z,21.5
2017-08-22T11:09:21.005Z,21.5
2017-08-22T11:10:22.644Z,21.5
2017-08-22T11:11:24.284Z,21.5
2017-08-22T11:12:25.928Z,21.5
2017-08-22T11:13:27.566Z,21.6
2017-08-22T11:14:29.207Z,21.6
2017-08-22T11:15:30.846Z,21.5
2017-08-22T11:16:32.484Z,21.5
2017-08-22T11:17:34.121Z,21.6
2017-08-22T11:18:35.761Z,21.4
2017-08-22T11:19:37.399Z,21.5
2017-08-22T11:20:39.038Z,21.5
2017-08-22T11:21:40.675Z,21.6
2017-08-22T11:22:42.317Z,21.5
2017-08-22T11:23:43.953Z,21.5
2017-08-22T11:24:45.589Z,21.5
2017-08-22T11:25:47.245Z,21.5
2017-08-22T11:26:48.881Z,21.5
2017-08-22T11:27:50.525Z,21.5
2017-08-22T11:28:52.163Z,21.5
2017-08-22T11:29:53.796Z,21.6
2017-08-22T11:30:55.433Z,21.5
2017-08-22T11:31:57.076Z,21.5
2017-08-22T11:32:58.714Z,21.6
2017-08-22T11:34:00.355Z,21.5
2017-08-22T11:35:01.998Z,21.6
2017-08-22T11:36:03.637Z,21.6
2017-08-22T11:37:05.278Z,21.5
2017-08-22T11:38:06.917Z,21.5
2017-08-22T11:39:08.558Z,21.6
2017-08-22T11:40:10.207Z,21.5
2017-08-22T11:41:11.844Z,21.5
2017-08-22T11:42:13.488Z,21.6
2017-08-22T11:43:15.122Z,21.5
2017-08-22T11:44:16.763Z,21.6
2017-08-22T11:45:18.400Z,21.5
2017-08-22T11:46:20.041Z,21.6
2017-08-22T11:47:21.681Z,21.5
2017-08-22T11:48:23.319Z,21.6
2017-08-22T11:49:24.957Z,21.5
2017-08-22T11:50:26.593Z,21.6
2017-08-22T11:51:28.232Z,21.6
2017-08-22T11:52:29.870Z,21.5
2017-08-22T11:53:31.507Z,21.6
2017-08-22T11:54:33.150Z,21.6
2017-08-22T11:55:34.789Z,21.5
2017-08-22T11:56:36.431Z,21.6
2017-08-22T11:57:38.067Z,21.5
2017-08-22T11:58:39.706Z,21.5
2017-08-22T11:59:41.344Z,21.5
2017-08-22T12:00:42.978Z,21.5
2017-08-22T12:01:44.620Z,21.5
2017-08-22T12:02:46.261Z,21.6
2017-08-22T12:03:47.914Z,21.6
2017-08-22T12:04:49.553Z,21.6
2017-08-22T12:05:51.188Z,21.5
2017-08-22T12:06:52.827Z,21.6
2017-08-22T12:07:54.466Z,21.5
2017-08-22T12:08:56.106Z,21.5
2017-08-22T12:09:57.747Z,21.6
2017-08-22T12:10:59.385Z,21.6
2017-08-22T12:12:01.027Z,21.5
2017-08-22T12:13:02.670Z,21.6
2017-08-22T12:14:04.306Z,21.5
2017-08-22T12:15:05.948Z,21.5
2017-08-22T12:16:07.589Z,21.6
2017-08-22T12:17:09.228Z,21.5
2017-08-22T12:18:10.867Z,21.5
2017-08-22T12:19:12.503Z,21.5
2017-08-22T12:20:14.140Z,21.5
2017-08-22T12:21:15.784Z,21.5
2017-08-22T12:22:17.422Z,21.6
2017-08-22T12:23:19.061Z,21.5
2017-08-22T12:24:20.706Z,21.6
2017-08-22T12:25:22.359Z,21.6
2017-08-22T12:26:24.005Z,21.5
2017-08-22T12:27:25.631Z,21.6
2017-08-22T12:28:27.280Z,21.6
2017-08-22T12:29:28.917Z,21.5
2017-08-22T12:30:30.557Z,21.5
2017-08-22T12:31:32.196Z,21.5
2017-08-22T12:32:33.835Z,21.5
2017-08-22T12:33:35.483Z,21.6
2017-08-22T12:34:37.124Z,21.5
2017-08-22T12:35:38.764Z,21.5
2017-08-22T12:36:40.403Z,21.6
2017-08-22T12:37:42.043Z,21.6
2017-08-22T12:38:43.687Z,21.6
2017-08-22T12:39:45.332Z,21.6
2017-08-22T12:40:46.973Z,21.6
2017-08-22T12:41:48.610Z,21.6
2017-08-22T12:42:50.248Z,21.6
2017-08-22T12:43:51.887Z,21.6
2017-08-22T12:44:54.105Z,21.6
2017-08-22T12:45:55.743Z,21.7
2017-08-22T12:46:57.419Z,21.6
2017-08-22T12:47:59.057Z,21.5
2017-08-22T12:49:00.697Z,21.5
2017-08-22T12:50:02.335Z,21.6
2017-08-22T12:51:04.122Z,21.5
2017-08-22T12:52:05.761Z,21.6
2017-08-22T12:53:07.406Z,21.6
2017-08-22T12:54:09.048Z,21.6
2017-08-22T12:55:10.682Z,21.6
2017-08-22T12:56:12.317Z,21.5
2017-08-22T12:57:13.959Z,21.5
2017-08-22T12:58:15.601Z,21.6
2017-08-22T12:59:17.241Z,21.6
2017-08-22T13:00:18.905Z,21.5
2017-08-22T13:01:20.549Z,21.5
2017-08-22T13:02:22.186Z,21.6
2017-08-22T13:03:23.822Z,21.6
2017-08-22T13:04:25.459Z,21.5
2017-08-22T13:05:27.097Z,21.5
2017-08-22T13:06:28.753Z,21.6
2017-08-22T13:07:30.376Z,21.6
2017-08-22T13:08:32.017Z,21.6
2017-08-22T13:09:33.663Z,21.5
2017-08-22T13:10:35.296Z,21.5
2017-08-22T13:11:36.933Z,21.6
2017-08-22T13:12:38.574Z,21.5
2017-08-22T13:13:40.220Z,21.6
2017-08-22T13:14:41.853Z,21.5
2017-08-22T13:15:43.493Z,21.6
2017-08-22T13:16:45.129Z,21.5
2017-08-22T13:17:46.767Z,21.5
2017-08-22T13:18:48.407Z,21.6
2017-08-22T13:19:50.059Z,21.5
2017-08-22T13:20:51.695Z,21.6
2017-08-22T13:21:53.338Z,21.6
2017-08-22T13:22:54.980Z,21.6
2017-08-22T13:23:56.635Z,21.6
2017-08-22T13:24:58.252Z,21.5
2017-08-22T13:25:59.888Z,21.6
2017-08-22T13:27:01.585Z,21.7
2017-08-22T13:28:03.854Z,21.7
2017-08-22T13:29:06.826Z,21.6
2017-08-22T13:30:08.903Z,21.7
2017-08-22T13:31:10.865Z,21.7
2017-08-22T13:32:12.653Z,21.8
2017-08-22T13:33:14.268Z,21.8
2017-08-22T13:34:15.909Z,21.8
2017-08-22T13:35:17.544Z,21.8
2017-08-22T13:36:19.181Z,21.8
2017-08-22T13:37:20.826Z,21.8
2017-08-22T13:38:22.678Z,21.8
2017-08-22T13:39:24.354Z,21.8
2017-08-22T13:40:25.992Z,21.8